createdAt,value
2022-10-10T00:01:32.083Z,9.90
2022-10-10T00:04:00.484Z,9.38
2022-10-10T00:06:33.109Z,11.30
2022-10-10T00:09:01.327Z,7.18
2022-10-10T00:11:28.165Z,14.13
2022-10-10T00:13:54.872Z,8.98
2022-10-10T00:16:21.646Z,10.70
2022-10-10T00:18:48.561Z,12.57
2022-10-10T00:21:15.725Z,7.00
2022-10-10T00:23:42.363Z,6.38
2022-10-10T00:26:10.131Z,9.13
2022-10-10T00:28:38.903Z,8.15
2022-10-10T00:31:09.649Z,7.70
2022-10-10T00:33:37.669Z,8.38
2022-10-10T00:36:05.361Z,10.85
2022-10-10T00:38:32.583Z,7.30
2022-10-10T00:41:01.366Z,11.90
2022-10-10T00:43:29.092Z,8.20
2022-10-10T00:45:56.297Z,8.00
2022-10-10T00:48:26.168Z,9.20
2022-10-10T00:51:09.463Z,9.57
2022-10-10T00:53:45.676Z,8.37
2022-10-10T00:56:15.182Z,8.25
2022-10-10T00:58:48.251Z,8.48
2022-10-10T01:01:14.943Z,8.38
2022-10-10T01:03:41.600Z,7.85
2022-10-10T01:06:09.060Z,9.60
2022-10-10T01:08:36.544Z,8.82
2022-10-10T01:11:18.205Z,7.40
2022-10-10T01:14:20.045Z,9.43
2022-10-10T01:16:58.727Z,10.48
2022-10-10T01:19:37.050Z,9.00
2022-10-10T01:22:48.036Z,7.32
2022-10-10T01:25:44.177Z,8.38
2022-10-10T01:28:43.854Z,6.70
2022-10-10T01:31:13.564Z,7.50
2022-10-10T01:34:05.019Z,11.30
2022-10-10T01:36:58.777Z,14.50
2022-10-10T01:40:01.851Z,6.45
2022-10-10T01:42:41.623Z,7.80
2022-10-10T01:45:08.804Z,10.80
2022-10-10T01:47:35.422Z,9.13
2022-10-10T01:50:07.818Z,13.52
2022-10-10T01:53:08.539Z,10.18
2022-10-10T01:55:55.619Z,9.85
2022-10-10T01:59:02.889Z,8.93
2022-10-10T02:01:35.305Z,12.95
2022-10-10T02:04:23.299Z,10.25
2022-10-10T02:06:55.425Z,9.82
2022-10-10T02:09:31.972Z,9.00
2022-10-10T02:12:00.116Z,8.63
2022-10-10T02:14:37.451Z,9.10
2022-10-10T02:17:07.914Z,10.15
2022-10-10T02:19:35.376Z,10.52
2022-10-10T02:22:05.114Z,8.70
2022-10-10T02:24:31.734Z,9.27
2022-10-10T02:27:07.958Z,10.88
2022-10-10T02:29:38.568Z,8.25
2022-10-10T02:32:31.602Z,13.23
2022-10-10T02:35:05.762Z,9.32
2022-10-10T02:37:33.415Z,10.63
2022-10-10T02:40:02.748Z,8.85
2022-10-10T02:42:30.261Z,8.10
2022-10-10T02:44:57.484Z,8.85
2022-10-10T02:47:24.178Z,10.63
2022-10-10T02:49:52.070Z,11.10
2022-10-10T02:52:19.022Z,12.13
2022-10-10T02:54:45.736Z,11.45
2022-10-10T02:57:12.428Z,9.95
2022-10-10T02:59:39.154Z,11.80
2022-10-10T03:02:06.354Z,17.40
2022-10-10T03:04:33.866Z,11.20
2022-10-10T03:07:00.510Z,9.05
2022-10-10T03:09:29.409Z,7.65
2022-10-10T03:11:56.091Z,11.68
2022-10-10T03:14:22.723Z,14.07
2022-10-10T03:16:49.365Z,7.85
2022-10-10T03:19:16.028Z,12.48
2022-10-10T03:21:42.761Z,9.85
2022-10-10T03:24:11.530Z,9.30
2022-10-10T03:26:40.450Z,11.40
2022-10-10T03:29:09.544Z,7.20
2022-10-10T03:31:36.152Z,8.07
2022-10-10T03:34:03.206Z,10.95
2022-10-10T03:36:31.269Z,7.88
2022-10-10T03:39:00.296Z,10.07
2022-10-10T03:41:29.070Z,6.70
2022-10-10T03:43:55.718Z,11.00
2022-10-10T03:46:22.332Z,11.70
2022-10-10T03:48:51.332Z,8.90
2022-10-10T03:51:18.057Z,11.88
2022-10-10T03:53:44.722Z,10.30
2022-10-10T03:56:11.835Z,7.80
2022-10-10T03:58:40.927Z,11.70
2022-10-10T04:01:10.086Z,9.02
2022-10-10T04:03:38.969Z,8.32
2022-10-10T04:06:08.392Z,6.82
2022-10-10T04:08:35.044Z,8.13
2022-10-10T04:11:01.708Z,8.38
2022-10-10T04:13:30.482Z,21.05
2022-10-10T04:15:57.458Z,11.63
2022-10-10T04:18:26.729Z,7.13
2022-10-10T04:20:58.227Z,7.78
2022-10-10T04:23:24.788Z,8.93
2022-10-10T04:25:52.775Z,11.20
2022-10-10T04:28:19.919Z,9.65
2022-10-10T04:30:47.101Z,11.50
2022-10-10T04:33:13.838Z,8.68
2022-10-10T04:35:40.806Z,7.55
2022-10-10T04:38:07.725Z,12.88
2022-10-10T04:40:37.918Z,9.45
2022-10-10T04:43:04.852Z,10.95
2022-10-10T04:45:37.362Z,7.43
2022-10-10T04:48:04.513Z,10.60
2022-10-10T04:50:31.523Z,10.10
2022-10-10T04:52:58.175Z,10.43
2022-10-10T04:55:26.994Z,9.48
2022-10-10T04:57:53.804Z,12.40
2022-10-10T05:00:23.000Z,9.00
2022-10-10T05:02:50.470Z,9.43
2022-10-10T05:05:17.363Z,11.70
2022-10-10T05:07:46.156Z,10.02
2022-10-10T05:10:12.795Z,15.85
2022-10-10T05:12:39.445Z,8.77
2022-10-10T05:15:06.729Z,8.88
2022-10-10T05:17:33.744Z,11.80
2022-10-10T05:20:00.407Z,9.90
2022-10-10T05:22:27.012Z,8.30
2022-10-10T05:24:53.809Z,14.95
2022-10-10T05:27:23.034Z,7.22
2022-10-10T05:29:52.076Z,17.05
2022-10-10T05:32:18.819Z,8.35
2022-10-10T05:34:47.577Z,7.72
2022-10-10T05:37:14.658Z,21.58
2022-10-10T05:39:41.342Z,13.32
2022-10-10T05:42:08.084Z,13.82
2022-10-10T05:44:37.084Z,9.75
2022-10-10T05:47:06.370Z,10.40
2022-10-10T05:49:32.990Z,10.88
2022-10-10T05:51:59.677Z,13.90
2022-10-10T05:54:26.288Z,10.60
2022-10-10T05:56:55.650Z,13.55
2022-10-10T05:59:22.429Z,14.95
2022-10-10T06:01:51.605Z,9.32
2022-10-10T06:04:21.484Z,7.63
2022-10-10T06:06:48.186Z,9.65
2022-10-10T06:09:14.833Z,15.35
2022-10-10T06:11:41.551Z,16.17
2022-10-10T06:14:08.865Z,12.43
2022-10-10T06:16:36.890Z,11.32
2022-10-10T06:19:06.354Z,14.75
2022-10-10T06:21:33.173Z,17.08
2022-10-10T06:24:00.089Z,18.85
2022-10-10T06:26:31.433Z,15.20
2022-10-10T06:28:58.088Z,24.77
2022-10-10T06:31:24.762Z,11.75
2022-10-10T06:33:53.203Z,11.35
2022-10-10T06:36:22.398Z,14.40
2022-10-10T06:38:49.071Z,10.32
2022-10-10T06:41:15.705Z,11.90
2022-10-10T06:43:42.503Z,10.55
2022-10-10T06:46:11.725Z,18.25
2022-10-10T06:48:38.374Z,14.38
2022-10-10T06:51:08.531Z,12.27
2022-10-10T06:53:35.997Z,11.63
2022-10-10T06:56:03.499Z,12.23
2022-10-10T06:58:30.297Z,9.50
2022-10-10T07:01:02.120Z,10.07
2022-10-10T07:03:30.703Z,12.43
2022-10-10T07:06:00.007Z,14.50
2022-10-10T07:08:27.422Z,14.45
2022-10-10T07:10:54.094Z,12.23
2022-10-10T07:13:22.974Z,13.05
2022-10-10T07:15:49.686Z,13.65
2022-10-10T07:18:18.062Z,9.52
2022-10-10T07:20:44.870Z,14.35
2022-10-10T07:23:14.670Z,16.40
2022-10-10T07:25:43.920Z,12.57
2022-10-10T07:28:13.306Z,11.85
2022-10-10T07:30:44.053Z,15.02
2022-10-10T07:33:14.909Z,13.48
2022-10-10T07:35:42.123Z,10.68
2022-10-10T07:38:13.137Z,10.60
2022-10-10T07:40:41.451Z,12.55
2022-10-10T07:43:08.161Z,13.88
2022-10-10T07:45:38.041Z,9.10
2022-10-10T07:48:07.541Z,18.77
2022-10-10T07:50:34.390Z,13.98
2022-10-10T07:53:07.059Z,14.93
2022-10-10T07:55:34.739Z,13.20
2022-10-10T07:58:03.683Z,14.85
2022-10-10T08:00:30.444Z,14.98
2022-10-10T08:02:58.429Z,10.95
2022-10-10T08:05:25.140Z,10.80
2022-10-10T08:07:52.042Z,12.27
2022-10-10T08:10:18.953Z,14.73
2022-10-10T08:12:45.598Z,13.45
2022-10-10T08:17:44.306Z,14.30
2022-10-10T08:20:10.987Z,17.23
2022-10-10T08:22:37.776Z,12.48
2022-10-10T08:25:04.758Z,13.15
2022-10-10T08:27:33.618Z,12.77
2022-10-10T08:30:00.205Z,14.52
2022-10-10T08:32:26.886Z,12.30
2022-10-10T08:34:53.878Z,10.02
2022-10-10T08:37:25.883Z,9.80
2022-10-10T08:39:56.756Z,10.73
2022-10-10T08:42:45.566Z,12.40
2022-10-10T08:45:21.671Z,8.98
2022-10-10T08:47:57.968Z,9.25
2022-10-10T08:50:29.317Z,13.75
2022-10-10T08:53:08.379Z,9.38
2022-10-10T08:55:38.571Z,9.32
2022-10-10T08:58:10.811Z,13.32
2022-10-10T09:01:02.188Z,9.55
2022-10-10T09:03:53.433Z,9.65
2022-10-10T09:06:47.474Z,8.88
2022-10-10T09:09:43.374Z,11.05
2022-10-10T09:12:16.469Z,7.93
2022-10-10T09:15:02.924Z,8.70
2022-10-10T09:18:04.014Z,13.95
2022-10-10T09:20:30.617Z,9.88
2022-10-10T09:23:29.667Z,12.85
2022-10-10T09:26:03.664Z,12.38
2022-10-10T09:28:45.398Z,11.18
2022-10-10T09:31:16.362Z,7.97
2022-10-10T09:33:59.594Z,12.75
2022-10-10T09:36:32.789Z,8.13
2022-10-10T09:39:12.982Z,11.07
2022-10-10T09:41:44.926Z,10.15
2022-10-10T09:44:21.358Z,8.70
2022-10-10T09:46:48.497Z,7.88
2022-10-10T09:49:20.110Z,10.73
2022-10-10T09:51:48.383Z,9.55
2022-10-10T09:54:17.953Z,6.95
2022-10-10T09:56:53.270Z,8.63
2022-10-10T09:59:41.811Z,10.30
2022-10-10T10:02:20.731Z,7.63
2022-10-10T10:04:52.529Z,9.15
2022-10-10T10:07:29.487Z,9.15
2022-10-10T10:10:01.768Z,10.88
2022-10-10T10:12:40.791Z,9.05
2022-10-10T10:15:22.781Z,7.18
2022-10-10T10:18:17.444Z,7.40
2022-10-10T10:20:52.699Z,10.25
2022-10-10T10:23:33.664Z,14.18
2022-10-10T10:26:06.516Z,8.25
2022-10-10T10:28:43.384Z,8.68
2022-10-10T10:31:42.646Z,9.48
2022-10-10T10:34:42.849Z,7.90
2022-10-10T10:37:21.069Z,9.15
2022-10-10T10:40:09.319Z,11.82
2022-10-10T10:42:53.974Z,10.30
2022-10-10T10:45:44.672Z,7.72
2022-10-10T10:48:39.023Z,6.32
2022-10-10T10:51:30.615Z,10.88
2022-10-10T10:54:39.453Z,9.20
2022-10-10T10:57:32.931Z,13.07
2022-10-10T11:01:23.405Z,11.57
2022-10-10T11:05:20.135Z,11.07
2022-10-10T11:06:27.537Z,9.30
2022-10-10T11:09:05.524Z,10.10
2022-10-10T11:12:04.538Z,29.40
2022-10-10T11:14:53.152Z,7.53
2022-10-10T11:17:37.157Z,9.07
2022-10-10T11:20:28.023Z,8.60
2022-10-10T11:23:23.488Z,10.75
2022-10-10T11:26:03.150Z,11.52
2022-10-10T11:28:33.947Z,6.32
2022-10-10T11:31:10.358Z,10.10
2022-10-10T11:33:45.524Z,10.43
2022-10-10T11:36:22.206Z,9.18
2022-10-10T11:39:15.454Z,10.23
2022-10-10T11:41:52.027Z,10.85
2022-10-10T11:44:28.048Z,8.43
2022-10-10T11:47:20.349Z,9.45
2022-10-10T11:50:15.589Z,9.20
2022-10-10T11:53:03.448Z,8.20
2022-10-10T11:55:55.063Z,11.93
2022-10-10T11:58:36.527Z,13.68
2022-10-10T12:01:20.975Z,10.27
2022-10-10T12:03:47.602Z,8.80
2022-10-10T12:06:27.891Z,16.38
2022-10-10T12:09:13.310Z,11.77
2022-10-10T12:11:42.945Z,12.50
2022-10-10T12:14:19.296Z,12.80
2022-10-10T12:16:46.838Z,13.55
2022-10-10T12:19:19.507Z,12.05
2022-10-10T12:21:58.086Z,8.05
2022-10-10T12:24:40.972Z,10.43
2022-10-10T12:27:25.554Z,7.93
2022-10-10T12:29:58.021Z,8.85
2022-10-10T12:32:39.989Z,15.13
2022-10-10T12:35:34.167Z,9.60
2022-10-10T12:38:20.401Z,10.93
2022-10-10T12:41:16.145Z,11.48
2022-10-10T12:43:47.921Z,10.82
2022-10-10T12:46:32.624Z,15.57
2022-10-10T12:49:27.176Z,12.02
2022-10-10T12:52:08.925Z,18.45
2022-10-10T12:54:45.449Z,12.15
2022-10-10T12:57:14.984Z,13.30
2022-10-10T12:59:44.721Z,21.40
2022-10-10T13:02:25.198Z,13.48
2022-10-10T13:04:56.142Z,12.27
2022-10-10T13:07:24.051Z,15.00
2022-10-10T13:09:53.320Z,13.98
2022-10-10T13:12:26.994Z,14.90
2022-10-10T13:14:54.321Z,11.30
2022-10-10T13:17:21.474Z,17.30
2022-10-10T13:19:48.347Z,15.57
2022-10-10T13:22:16.568Z,15.10
2022-10-10T13:24:44.695Z,12.07
2022-10-10T13:27:23.615Z,18.77
2022-10-10T13:29:51.577Z,16.95
2022-10-10T13:32:40.585Z,11.73
2022-10-10T13:35:33.449Z,17.20
2022-10-10T13:38:01.395Z,17.45
2022-10-10T13:40:31.508Z,26.55
2022-10-10T13:43:00.593Z,24.77
2022-10-10T13:45:32.885Z,16.80
2022-10-10T13:48:18.718Z,12.02
2022-10-10T13:50:47.068Z,14.93
2022-10-10T13:53:34.977Z,10.85
2022-10-10T13:56:27.948Z,15.80
2022-10-10T13:59:14.007Z,10.33
2022-10-10T14:01:49.509Z,11.18
2022-10-10T14:04:32.459Z,15.40
2022-10-10T14:07:04.383Z,12.30
2022-10-10T14:09:55.490Z,15.60
2022-10-10T14:12:30.571Z,12.20
2022-10-10T14:14:59.396Z,12.95
2022-10-10T14:17:27.845Z,14.00
2022-10-10T14:19:55.137Z,15.40
2022-10-10T14:22:25.003Z,19.98
2022-10-10T14:24:51.753Z,18.48
2022-10-10T14:27:26.594Z,15.07
2022-10-10T14:29:55.243Z,21.77
2022-10-10T14:32:22.590Z,18.15
2022-10-10T14:34:54.039Z,12.75
2022-10-10T14:37:26.721Z,12.23
2022-10-10T14:39:54.224Z,17.87
2022-10-10T14:42:22.328Z,18.15
2022-10-10T14:44:56.644Z,17.17
2022-10-10T14:47:24.916Z,14.30
2022-10-10T14:49:53.433Z,16.88
2022-10-10T14:52:20.418Z,16.67
2022-10-10T14:54:47.194Z,21.25
2022-10-10T14:57:14.314Z,17.45
2022-10-10T14:59:48.166Z,15.95
2022-10-10T15:02:21.347Z,20.17
2022-10-10T15:04:48.717Z,21.88
2022-10-10T15:07:17.960Z,18.00
2022-10-10T15:12:34.752Z,17.30
2022-10-10T15:15:01.529Z,19.02
2022-10-10T15:17:30.275Z,16.23
2022-10-10T15:19:59.397Z,16.20
2022-10-10T15:22:27.467Z,18.05
2022-10-10T15:24:56.309Z,17.23
2022-10-10T15:27:23.196Z,21.27
2022-10-10T15:29:49.887Z,17.25
2022-10-10T15:32:19.120Z,15.90
2022-10-10T15:34:49.032Z,20.48
2022-10-10T15:37:15.793Z,15.60
2022-10-10T15:39:44.698Z,17.88
2022-10-10T15:42:19.927Z,15.90
2022-10-10T15:44:49.511Z,10.00
2022-10-10T15:47:17.843Z,17.23
2022-10-10T15:49:44.697Z,15.15
2022-10-10T15:52:13.784Z,25.58
2022-10-10T15:54:40.791Z,14.25
2022-10-10T15:57:07.508Z,16.92
2022-10-10T15:59:35.171Z,20.65
2022-10-10T16:02:04.655Z,15.25
2022-10-10T16:04:31.505Z,21.40
2022-10-10T16:09:45.167Z,13.30
2022-10-10T16:12:14.360Z,13.80
2022-10-10T16:14:43.315Z,17.33
2022-10-10T16:17:10.318Z,15.15
2022-10-10T16:19:37.031Z,18.50
2022-10-10T16:22:06.288Z,10.52
2022-10-10T16:24:35.268Z,15.90
2022-10-10T16:27:02.081Z,12.88
2022-10-10T16:29:28.873Z,14.70
2022-10-10T16:31:55.804Z,26.58
2022-10-10T16:34:22.615Z,17.65
2022-10-10T16:36:49.363Z,14.98
2022-10-10T16:39:16.091Z,22.13
2022-10-10T16:41:47.994Z,19.73
2022-10-10T16:44:15.717Z,20.67
2022-10-10T16:46:45.222Z,27.17
2022-10-10T16:49:20.356Z,24.95
2022-10-10T16:51:50.168Z,22.95
2022-10-10T16:54:16.865Z,25.85
2022-10-10T16:56:45.657Z,27.02
2022-10-10T16:59:14.456Z,23.38
2022-10-10T17:01:41.192Z,21.90
2022-10-10T17:04:08.618Z,24.48
2022-10-10T17:06:37.761Z,23.75
2022-10-10T17:09:07.309Z,22.92
2022-10-10T17:11:34.616Z,26.42
2022-10-10T17:14:01.396Z,23.90
2022-10-10T17:17:06.877Z,15.32
2022-10-10T17:19:16.585Z,20.48
2022-10-10T17:21:43.328Z,20.20
2022-10-10T17:24:10.336Z,20.42
2022-10-10T17:26:37.291Z,17.95
2022-10-10T17:29:04.064Z,21.45
2022-10-10T17:31:30.888Z,20.55
2022-10-10T17:33:57.909Z,24.25
2022-10-10T17:36:26.290Z,22.92
2022-10-10T17:38:56.171Z,26.98
2022-10-10T17:41:23.695Z,25.15
2022-10-10T17:43:50.475Z,32.70
2022-10-10T17:46:34.175Z,28.30
2022-10-10T17:49:03.581Z,30.63
2022-10-10T17:51:30.391Z,24.75
2022-10-10T17:54:00.600Z,19.98
2022-10-10T17:56:30.466Z,23.92
2022-10-10T17:58:59.307Z,38.97
2022-10-10T18:01:26.342Z,21.70
2022-10-10T18:03:53.304Z,25.40
2022-10-10T18:06:22.180Z,14.73
2022-10-10T18:08:50.813Z,21.15
2022-10-10T18:11:23.225Z,18.70
2022-10-10T18:13:50.830Z,29.08
2022-10-10T18:16:22.675Z,24.10
2022-10-10T18:18:51.908Z,18.58
2022-10-10T18:21:21.619Z,21.35
2022-10-10T18:23:48.982Z,19.17
2022-10-10T18:26:23.638Z,20.27
2022-10-10T18:28:52.682Z,14.98
2022-10-10T18:31:23.232Z,19.52
2022-10-10T18:33:50.208Z,17.85
2022-10-10T18:36:20.111Z,21.67
2022-10-10T18:38:50.117Z,18.05
2022-10-10T18:41:20.036Z,24.63
2022-10-10T18:43:49.524Z,21.00
2022-10-10T18:46:19.265Z,12.23
2022-10-10T18:48:49.036Z,18.13
2022-10-10T18:51:29.418Z,18.70
2022-10-10T18:54:00.895Z,25.88
2022-10-10T18:56:28.483Z,22.40
2022-10-10T18:59:03.497Z,14.73
2022-10-10T19:01:33.248Z,16.80
2022-10-10T19:04:00.471Z,23.25
2022-10-10T19:06:27.314Z,13.55
2022-10-10T19:08:55.859Z,16.70
2022-10-10T19:11:27.225Z,18.13
2022-10-10T19:13:58.242Z,12.38
2022-10-10T19:16:30.907Z,15.77
2022-10-10T19:19:01.262Z,15.13
2022-10-10T19:21:30.802Z,16.30
2022-10-10T19:23:59.851Z,13.65
2022-10-10T19:26:27.564Z,17.30
2022-10-10T19:28:54.276Z,20.48
2022-10-10T19:31:21.457Z,20.17
2022-10-10T19:33:52.229Z,14.02
2022-10-10T19:36:19.163Z,12.93
2022-10-10T19:38:47.677Z,11.77
2022-10-10T19:41:14.808Z,12.48
2022-10-10T19:43:43.305Z,19.48
2022-10-10T19:46:13.141Z,13.00
2022-10-10T19:48:40.395Z,12.60
2022-10-10T19:51:13.168Z,12.20
2022-10-10T19:53:41.435Z,16.33
2022-10-10T19:56:22.349Z,13.55
2022-10-10T19:58:49.031Z,11.27
2022-10-10T20:01:17.804Z,17.23
2022-10-10T20:03:45.816Z,11.55
2022-10-10T20:06:12.552Z,18.48
2022-10-10T20:08:39.462Z,14.10
2022-10-10T20:11:08.543Z,12.70
2022-10-10T20:13:35.271Z,16.17
2022-10-10T20:16:09.103Z,17.25
2022-10-10T20:21:16.928Z,15.70
2022-10-10T20:23:47.092Z,18.65
2022-10-10T20:26:17.689Z,17.10
2022-10-10T20:28:45.794Z,17.70
2022-10-10T20:31:32.954Z,15.07
2022-10-10T20:34:01.627Z,16.17
2022-10-10T20:36:30.044Z,17.58
2022-10-10T20:39:02.629Z,14.63
2022-10-10T20:41:34.784Z,12.32
2022-10-10T20:44:03.390Z,14.13
2022-10-10T20:46:34.063Z,14.13
2022-10-10T20:49:02.759Z,20.60
2022-10-10T20:51:30.233Z,11.48
2022-10-10T20:54:00.951Z,16.85
2022-10-10T20:56:31.814Z,19.63
2022-10-10T20:58:59.205Z,15.90
2022-10-10T21:01:29.323Z,15.38
2022-10-10T21:04:00.789Z,12.82
2022-10-10T21:06:30.358Z,15.15
2022-10-10T21:09:00.081Z,14.95
2022-10-10T21:11:26.980Z,20.17
2022-10-10T21:13:56.587Z,16.90
2022-10-10T21:16:25.723Z,16.30
2022-10-10T21:18:58.007Z,18.27
2022-10-10T21:21:30.806Z,15.63
2022-10-10T21:23:57.856Z,20.30
2022-10-10T21:26:26.380Z,18.73
2022-10-10T21:28:56.965Z,16.70
2022-10-10T21:31:26.379Z,17.10
2022-10-10T21:33:58.250Z,20.92
2022-10-10T21:36:30.542Z,20.25
2022-10-10T21:39:00.429Z,24.08
2022-10-10T21:41:27.671Z,18.33
2022-10-10T21:43:59.559Z,14.90
2022-10-10T21:46:36.200Z,23.00
2022-10-10T21:49:06.393Z,13.70
2022-10-10T21:51:37.242Z,18.77
2022-10-10T21:54:07.426Z,24.92
2022-10-10T21:56:34.306Z,21.10
2022-10-10T21:59:01.752Z,14.98
2022-10-10T22:01:32.757Z,21.15
2022-10-10T22:04:00.402Z,20.15
2022-10-10T22:06:29.253Z,19.95
2022-10-10T22:08:59.223Z,17.45
2022-10-10T22:11:30.589Z,23.80
2022-10-10T22:13:57.352Z,15.23
2022-10-10T22:16:24.348Z,14.38
2022-10-10T22:18:55.243Z,15.07
2022-10-10T22:21:23.260Z,18.50
2022-10-10T22:23:51.543Z,24.40
2022-10-10T22:26:20.425Z,17.33
2022-10-10T22:28:49.428Z,14.88
2022-10-10T22:31:18.403Z,13.13
2022-10-10T22:33:45.204Z,12.63
2022-10-10T22:36:14.606Z,18.92
2022-10-10T22:38:45.134Z,13.05
2022-10-10T22:41:12.875Z,17.08
2022-10-10T22:43:39.797Z,10.98
2022-10-10T22:46:09.481Z,17.23
2022-10-10T22:48:39.210Z,18.00
2022-10-10T22:51:17.204Z,12.77
2022-10-10T22:53:45.778Z,19.40
2022-10-10T22:56:19.096Z,13.07
2022-10-10T22:58:49.615Z,12.70
2022-10-10T23:01:21.720Z,15.20
2022-10-10T23:03:48.790Z,20.55
2022-10-10T23:06:18.226Z,11.85
2022-10-10T23:08:44.847Z,13.38
2022-10-10T23:11:13.911Z,14.52
2022-10-10T23:13:40.766Z,13.38
2022-10-10T23:16:08.332Z,17.55
2022-10-10T23:18:35.402Z,14.60
2022-10-10T23:21:06.477Z,10.80
2022-10-10T23:23:33.272Z,16.88
2022-10-10T23:26:03.847Z,16.52
2022-10-10T23:28:30.803Z,16.23
2022-10-10T23:31:04.811Z,13.88
2022-10-10T23:33:36.627Z,16.20
2022-10-10T23:36:09.481Z,12.88
2022-10-10T23:38:37.246Z,14.32
2022-10-10T23:41:04.299Z,16.20
2022-10-10T23:43:35.871Z,15.95
2022-10-10T23:46:05.062Z,13.35
2022-10-10T23:48:34.205Z,12.60
2022-10-10T23:51:00.966Z,11.93
2022-10-10T23:53:27.601Z,15.07
2022-10-10T23:55:54.398Z,11.27
2022-10-10T23:58:21.086Z,15.57
